Time;durP1;ratioP1;P1;durP2;ratioP2;P2;SDS_P1;SDS_P2;PMS_P1;PMS_P2;Temp;Humidity;BMP_temperature;BMP_pressure;BME280_temperature;BME280_humidity;BME280_pressure;Samples;Min_cycle;Max_cycle;Signal;HPM_P1;HPM_P2
2022/05/21 00:01:52;;;;;;;;;;;18.50;90.10;;;;;;5072011;28;19909;-74
2022/05/21 00:04:18;;;;;;;;;;;18.50;90.20;;;;;;5073257;28;20303;-72
2022/05/21 00:06:43;;;;;;;;;;;18.40;90.30;;;;;;5071902;28;19908;-73
2022/05/21 00:09:09;;;;;;;;;;;18.50;90.40;;;;;;5073206;28;20003;-74
2022/05/21 00:11:35;;;;;;;;;;;18.40;90.60;;;;;;5071718;28;19908;-72
2022/05/21 00:14:00;;;;;;;;;;;18.30;90.70;;;;;;5072473;28;19939;-72
2022/05/21 00:16:26;;;;;;;;;;;18.30;90.80;;;;;;5073060;28;19916;-74
2022/05/21 00:18:52;;;;;;;;;;;18.20;90.90;;;;;;5073239;28;19966;-72
2022/05/21 00:21:17;;;;;;;;;;;18.20;91.20;;;;;;5072631;28;19909;-73
2022/05/21 00:23:43;;;;;;;;;;;18.20;91.40;;;;;;5072976;28;20430;-72
2022/05/21 00:26:10;;;;;;;;;;;18.10;91.70;;;;;;5071435;28;19908;-73
2022/05/21 00:28:36;;;;;;;;;;;18.10;91.80;;;;;;5071290;28;19917;-74
2022/05/21 00:31:03;;;;;;;;;;;18.00;92.10;;;;;;5071383;28;19998;-73
2022/05/21 00:33:29;;;;;;;;;;;18.00;92.30;;;;;;5072617;28;19931;-72
2022/05/21 00:35:54;;;;;;;;;;;17.90;92.50;;;;;;5072775;28;19918;-72
2022/05/21 00:38:20;;;;;;;;;;;17.90;92.80;;;;;;5072482;28;20284;-72
2022/05/21 00:40:46;;;;;;;;;;;17.90;93.00;;;;;;5072738;28;19912;-74
2022/05/21 00:43:30;;;;;;;;;;;17.80;93.30;;;;;;5072554;28;19909;-72
2022/05/21 00:45:56;;;;;;;;;;;17.90;93.50;;;;;;5072812;28;19909;-73
2022/05/21 00:48:21;;;;;;;;;;;17.80;93.90;;;;;;5072216;28;19908;-73
2022/05/21 00:50:47;;;;;;;;;;;17.80;94.30;;;;;;5072211;28;19913;-72
2022/05/21 00:53:13;;;;;;;;;;;17.80;94.50;;;;;;5072404;28;19909;-73
2022/05/21 00:55:39;;;;;;;;;;;17.70;94.70;;;;;;5072343;28;20303;-73
2022/05/21 01:00:50;;;;;;;;;;;17.70;95.30;;;;;;5072395;28;19924;-72
2022/05/21 01:03:16;;;;;;;;;;;17.70;95.70;;;;;;5072081;28;20004;-71
2022/05/21 01:05:44;;;;;;;;;;;17.60;96.00;;;;;;5070654;28;19916;-73
2022/05/21 01:08:09;;;;;;;;;;;17.60;96.30;;;;;;5071776;28;19965;-73
2022/05/21 01:10:40;;;;;;;;;;;17.60;96.60;;;;;;5071948;28;19999;-72
2022/05/21 01:13:07;;;;;;;;;;;17.60;97.00;;;;;;5070791;28;20046;-72
2022/05/21 01:15:36;;;;;;;;;;;17.60;97.40;;;;;;5071706;28;20284;-72
2022/05/21 01:18:05;;;;;;;;;;;17.60;97.80;;;;;;5070608;28;19969;-71
2022/05/21 01:20:35;;;;;;;;;;;17.50;98.10;;;;;;5070683;28;19928;-72
2022/05/21 01:23:01;;;;;;;;;;;17.50;98.50;;;;;;5071841;28;19920;-73
2022/05/21 01:25:29;;;;;;;;;;;17.50;98.90;;;;;;5072206;28;19963;-72
2022/05/21 01:27:55;;;;;;;;;;;17.40;99.80;;;;;;5071924;28;19913;-72
2022/05/21 01:30:23;;;;;;;;;;;17.40;99.90;;;;;;5072069;28;20007;-72
2022/05/21 01:32:49;;;;;;;;;;;17.40;99.90;;;;;;5071614;28;20011;-73
2022/05/21 01:35:16;;;;;;;;;;;17.50;99.90;;;;;;5080889;28;19917;-73
2022/05/21 01:37:41;;;;;;;;;;;17.40;99.90;;;;;;5071567;28;19913;-73
2022/05/21 01:40:07;;;;;;;;;;;17.40;99.90;;;;;;5070409;28;19923;-72
2022/05/21 01:42:33;;;;;;;;;;;17.40;99.90;;;;;;5071508;28;20524;-72
2022/05/21 01:44:59;;;;;;;;;;;17.40;99.90;;;;;;5071832;28;19917;-72
2022/05/21 01:47:24;;;;;;;;;;;17.30;99.90;;;;;;5070159;28;19909;-72
2022/05/21 01:49:51;;;;;;;;;;;17.30;99.90;;;;;;5071815;28;19955;-72
2022/05/21 01:52:17;;;;;;;;;;;17.40;99.90;;;;;;5071537;28;20400;-72
2022/05/21 01:54:42;;;;;;;;;;;17.20;99.90;;;;;;5070154;28;20011;-72
2022/05/21 01:57:09;;;;;;;;;;;17.30;99.90;;;;;;5071328;28;19964;-72
2022/05/21 01:59:34;;;;;;;;;;;17.30;99.90;;;;;;5071215;28;20368;-72
2022/05/21 02:02:01;;;;;;;;;;;17.30;99.90;;;;;;5070141;28;19908;-73
2022/05/21 02:04:27;;;;;;;;;;;17.20;99.90;;;;;;5070114;28;19920;-73
2022/05/21 02:06:52;;;;;;;;;;;17.20;99.90;;;;;;5071302;28;19995;-72
2022/05/21 02:09:18;;;;;;;;;;;17.20;99.90;;;;;;5070153;28;19920;-71
2022/05/21 02:11:45;;;;;;;;;;;17.20;99.90;;;;;;5071261;28;19920;-72
2022/05/21 02:14:11;;;;;;;;;;;17.20;99.90;;;;;;5070029;28;20288;-72
2022/05/21 02:16:36;;;;;;;;;;;17.20;99.90;;;;;;5071226;28;19912;-73
2022/05/21 02:19:06;;;;;;;;;;;17.10;99.90;;;;;;5071578;28;19920;-72
2022/05/21 02:21:32;;;;;;;;;;;17.20;99.90;;;;;;5071154;28;19924;-72
2022/05/21 02:23:58;;;;;;;;;;;17.40;99.90;;;;;;5071616;28;20550;-74
2022/05/21 02:26:23;;;;;;;;;;;17.30;99.90;;;;;;5071108;28;19916;-72
2022/05/21 02:28:49;;;;;;;;;;;17.10;99.90;;;;;;5071442;28;19977;-72
2022/05/21 02:31:15;;;;;;;;;;;17.10;99.90;;;;;;5070940;28;19909;-72
2022/05/21 02:33:43;;;;;;;;;;;17.10;99.90;;;;;;5069445;28;20646;-71
2022/05/21 02:36:10;;;;;;;;;;;17.10;99.90;;;;;;5071213;28;19995;-72
2022/05/21 02:41:20;;;;;;;;;;;17.10;99.90;;;;;;5075530;28;20042;-72
2022/05/21 02:43:46;;;;;;;;;;;17.20;99.90;;;;;;5074954;28;19951;-71
2022/05/21 02:46:12;;;;;;;;;;;17.10;99.90;;;;;;5073479;28;19912;-72
2022/05/21 02:48:38;;;;;;;;;;;17.10;99.90;;;;;;5073500;28;19916;-72
2022/05/21 02:51:04;;;;;;;;;;;17.10;99.90;;;;;;5073421;28;20007;-72
2022/05/21 02:53:29;;;;;;;;;;;17.10;99.90;;;;;;5074806;28;19924;-73
2022/05/21 02:55:55;;;;;;;;;;;17.00;99.90;;;;;;5073316;28;19908;-72
2022/05/21 02:58:21;;;;;;;;;;;17.00;99.90;;;;;;5073429;28;20280;-72
2022/05/21 03:00:47;;;;;;;;;;;17.10;99.90;;;;;;5074336;28;19957;-71
2022/05/21 03:03:13;;;;;;;;;;;17.10;99.90;;;;;;5074338;28;19909;-70
2022/05/21 03:05:39;;;;;;;;;;;17.10;99.90;;;;;;5074205;28;20295;-71
2022/05/21 03:10:51;;;;;;;;;;;17.10;99.90;;;;;;5074523;28;19981;-71
2022/05/21 03:13:16;;;;;;;;;;;17.00;99.90;;;;;;5072856;28;19909;-71
2022/05/21 03:15:42;;;;;;;;;;;17.10;99.90;;;;;;5072858;28;20387;-71
2022/05/21 03:18:09;;;;;;;;;;;17.10;99.90;;;;;;5074064;28;19912;-72
2022/05/21 03:20:34;;;;;;;;;;;17.10;99.90;;;;;;5074351;28;19969;-71
2022/05/21 03:23:00;;;;;;;;;;;17.20;99.90;;;;;;5074016;28;20010;-71
2022/05/21 03:25:26;;;;;;;;;;;17.10;99.90;;;;;;5074500;28;20426;-72
2022/05/21 03:27:51;;;;;;;;;;;17.10;99.90;;;;;;5073919;28;20250;-70
2022/05/21 03:30:18;;;;;;;;;;;17.20;99.90;;;;;;5072897;28;19919;-72
2022/05/21 03:32:44;;;;;;;;;;;17.10;99.90;;;;;;5072603;28;20303;-71
2022/05/21 03:35:10;;;;;;;;;;;17.20;99.90;;;;;;5072772;28;19999;-72
2022/05/21 03:37:37;;;;;;;;;;;17.20;99.90;;;;;;5072452;28;19917;-72
2022/05/21 03:40:04;;;;;;;;;;;17.20;99.90;;;;;;5072606;28;19967;-72
2022/05/21 03:42:29;;;;;;;;;;;17.20;99.90;;;;;;5073539;28;19999;-72
2022/05/21 03:44:55;;;;;;;;;;;17.30;99.90;;;;;;5072526;28;20011;-73
2022/05/21 03:47:20;;;;;;;;;;;17.30;99.90;;;;;;5072352;28;19918;-71
2022/05/21 03:49:46;;;;;;;;;;;17.30;99.90;;;;;;5072309;28;19931;-72
2022/05/21 03:52:11;;;;;;;;;;;17.30;99.90;;;;;;5072189;28;19919;-73
2022/05/21 03:54:37;;;;;;;;;;;17.40;99.90;;;;;;5073857;28;19916;-72
2022/05/21 03:57:04;;;;;;;;;;;17.30;99.90;;;;;;5073255;28;19924;-72
2022/05/21 03:59:29;;;;;;;;;;;17.30;99.90;;;;;;5072204;28;19998;-72
2022/05/21 04:01:55;;;;;;;;;;;17.40;99.90;;;;;;5072053;28;19913;-72
2022/05/21 04:04:20;;;;;;;;;;;17.40;99.90;;;;;;5073422;28;19961;-74
2022/05/21 04:06:46;;;;;;;;;;;17.50;99.90;;;;;;5073354;28;19913;-72
2022/05/21 04:09:11;;;;;;;;;;;17.60;99.90;;;;;;5072144;28;19913;-72
2022/05/21 04:11:37;;;;;;;;;;;17.60;99.90;;;;;;5073298;28;19912;-73
2022/05/21 04:14:02;;;;;;;;;;;17.70;99.90;;;;;;5073473;28;20348;-72
2022/05/21 04:16:28;;;;;;;;;;;17.60;99.90;;;;;;5072949;28;19924;-72
2022/05/21 04:18:53;;;;;;;;;;;17.70;99.90;;;;;;5073030;28;20432;-72
2022/05/21 04:21:19;;;;;;;;;;;17.70;99.90;;;;;;5071567;28;19920;-71
2022/05/21 04:23:45;;;;;;;;;;;17.70;99.90;;;;;;5073041;28;19927;-71
2022/05/21 04:26:10;;;;;;;;;;;17.70;99.90;;;;;;5071660;28;20283;-71
2022/05/21 04:28:36;;;;;;;;;;;17.60;99.90;;;;;;5072829;28;19912;-72
2022/05/21 04:31:01;;;;;;;;;;;17.60;99.90;;;;;;5072712;28;20380;-71
2022/05/21 04:33:26;;;;;;;;;;;17.60;99.90;;;;;;5072701;28;20284;-73
2022/05/21 04:38:36;;;;;;;;;;;17.80;99.90;;;;;;5073010;28;20348;-71
2022/05/21 04:41:02;;;;;;;;;;;17.90;99.90;;;;;;5072588;28;19916;-71
2022/05/21 04:43:27;;;;;;;;;;;18.00;99.90;;;;;;5071190;28;19954;-71
2022/05/21 04:45:56;;;;;;;;;;;18.00;99.90;;;;;;5071124;28;19921;-72
2022/05/21 04:48:22;;;;;;;;;;;18.10;99.90;;;;;;5071256;28;19995;-70
2022/05/21 04:50:47;;;;;;;;;;;18.10;99.90;;;;;;5072390;28;20007;-71
2022/05/21 04:53:13;;;;;;;;;;;18.10;99.90;;;;;;5072259;28;19908;-71
2022/05/21 04:55:38;;;;;;;;;;;18.20;99.90;;;;;;5072487;28;20398;-72
2022/05/21 04:58:05;;;;;;;;;;;18.20;99.90;;;;;;5070612;28;20376;-71
2022/05/21 05:00:31;;;;;;;;;;;18.30;99.90;;;;;;5071064;28;19916;-73
2022/05/21 05:02:56;;;;;;;;;;;18.30;99.90;;;;;;5072221;28;19919;-71
2022/05/21 05:05:23;;;;;;;;;;;18.40;99.90;;;;;;5070940;28;19912;-73
2022/05/21 05:07:49;;;;;;;;;;;18.50;99.90;;;;;;5072051;28;20280;-73
2022/05/21 05:10:14;;;;;;;;;;;18.40;99.90;;;;;;5072392;28;19912;-72
2022/05/21 05:12:40;;;;;;;;;;;18.60;99.90;;;;;;5070542;28;20452;-72
2022/05/21 05:15:06;;;;;;;;;;;18.60;99.90;;;;;;5072198;28;20008;-72
2022/05/21 05:17:31;;;;;;;;;;;18.60;99.90;;;;;;5071506;28;19920;-72
2022/05/21 05:19:59;;;;;;;;;;;18.70;99.90;;;;;;5072084;28;19939;-72
2022/05/21 05:22:24;;;;;;;;;;;18.70;99.90;;;;;;5071433;28;19920;-72
2022/05/21 05:24:50;;;;;;;;;;;18.70;99.90;;;;;;5072089;28;20265;-72
2022/05/21 05:27:16;;;;;;;;;;;18.80;99.90;;;;;;5071723;28;19908;-72
2022/05/21 05:29:41;;;;;;;;;;;18.90;99.90;;;;;;5071509;28;20007;-72
2022/05/21 05:32:07;;;;;;;;;;;18.90;99.90;;;;;;5070470;28;19913;-73
2022/05/21 05:34:33;;;;;;;;;;;19.00;99.90;;;;;;5070184;28;20349;-73
2022/05/21 05:36:59;;;;;;;;;;;19.10;99.90;;;;;;5071769;28;19921;-72
2022/05/21 05:39:24;;;;;;;;;;;19.10;99.90;;;;;;5071876;28;20058;-72
2022/05/21 05:41:51;;;;;;;;;;;19.30;99.90;;;;;;5071650;28;19919;-72
2022/05/21 05:44:17;;;;;;;;;;;19.30;99.90;;;;;;5070562;28;19997;-72
2022/05/21 05:46:42;;;;;;;;;;;19.40;99.90;;;;;;5071657;28;19978;-72
2022/05/21 05:49:08;;;;;;;;;;;19.30;99.90;;;;;;5071785;28;19912;-73
2022/05/21 05:51:34;;;;;;;;;;;19.50;99.90;;;;;;5071298;28;20379;-74
2022/05/21 05:53:59;;;;;;;;;;;19.60;99.90;;;;;;5071468;28;19920;-72
2022/05/21 05:56:25;;;;;;;;;;;19.70;99.90;;;;;;5069806;28;19917;-72
2022/05/21 06:01:34;;;;;;;;;;;19.80;99.90;;;;;;5071824;28;20270;-71
2022/05/21 06:04:00;;;;;;;;;;;19.90;99.90;;;;;;5070152;28;19913;-73
2022/05/21 06:06:25;;;;;;;;;;;19.90;99.90;;;;;;5071763;28;19912;-73
2022/05/21 06:08:51;;;;;;;;;;;20.00;99.90;;;;;;5071391;28;19912;-72
2022/05/21 06:11:17;;;;;;;;;;;19.90;99.90;;;;;;5072007;28;19913;-72
2022/05/21 06:13:43;;;;;;;;;;;20.00;99.90;;;;;;5075462;28;19916;-71
2022/05/21 06:16:08;;;;;;;;;;;20.10;99.90;;;;;;5075346;28;19913;-71
2022/05/21 06:18:34;;;;;;;;;;;20.10;99.90;;;;;;5075230;28;19948;-72
2022/05/21 06:21:00;;;;;;;;;;;20.20;99.90;;;;;;5074032;28;19913;-72
2022/05/21 06:23:26;;;;;;;;;;;20.20;99.90;;;;;;5074883;28;20383;-73
2022/05/21 06:25:51;;;;;;;;;;;20.20;99.90;;;;;;5074655;28;19965;-71
2022/05/21 06:28:17;;;;;;;;;;;20.30;99.90;;;;;;5074993;28;19917;-71
2022/05/21 06:30:43;;;;;;;;;;;20.20;99.90;;;;;;5074906;28;19969;-71
2022/05/21 06:33:19;;;;;;;;;;;20.20;99.90;;;;;;5074811;28;19913;-72
2022/05/21 06:35:45;;;;;;;;;;;20.20;99.90;;;;;;5073777;28;19912;-73
2022/05/21 06:38:11;;;;;;;;;;;20.10;99.90;;;;;;5073438;28;19949;-72
2022/05/21 06:40:36;;;;;;;;;;;20.20;99.90;;;;;;5074755;28;19920;-73
2022/05/21 06:43:02;;;;;;;;;;;20.20;99.90;;;;;;5073546;28;19909;-72
2022/05/21 06:45:28;;;;;;;;;;;20.30;99.90;;;;;;5075235;28;20348;-74
2022/05/21 06:47:58;;;;;;;;;;;20.40;99.90;;;;;;5074765;28;20011;-72
2022/05/21 06:50:24;;;;;;;;;;;20.50;99.90;;;;;;5073340;28;19958;-72
2022/05/21 06:52:49;;;;;;;;;;;20.60;99.90;;;;;;5074729;28;19913;-73
2022/05/21 06:55:15;;;;;;;;;;;20.60;99.90;;;;;;5074922;28;19991;-71
2022/05/21 06:57:40;;;;;;;;;;;20.60;99.90;;;;;;5074382;28;19917;-73
2022/05/21 07:00:06;;;;;;;;;;;20.50;99.90;;;;;;5074658;28;19917;-72
2022/05/21 07:02:32;;;;;;;;;;;20.60;99.90;;;;;;5074648;28;19912;-72
2022/05/21 07:07:44;;;;;;;;;;;20.90;99.90;;;;;;5074336;28;19958;-73
2022/05/21 07:10:18;;;;;;;;;;;21.10;99.90;;;;;;5074483;28;20004;-74
2022/05/21 07:12:44;;;;;;;;;;;21.10;99.90;;;;;;5074585;28;20426;-73
2022/05/21 07:15:10;;;;;;;;;;;21.20;99.90;;;;;;5074503;28;19912;-73
2022/05/21 07:17:36;;;;;;;;;;;21.20;99.90;;;;;;5074267;28;20367;-73
2022/05/21 07:20:06;;;;;;;;;;;21.20;99.90;;;;;;5072691;28;19912;-72
2022/05/21 07:22:33;;;;;;;;;;;21.30;99.90;;;;;;5072403;28;20330;-72
2022/05/21 07:25:01;;;;;;;;;;;21.20;99.90;;;;;;5074292;28;20380;-73
2022/05/21 07:27:26;;;;;;;;;;;21.20;99.90;;;;;;5073872;28;19963;-72
2022/05/21 07:29:51;;;;;;;;;;;21.40;99.90;;;;;;5074210;28;19959;-72
2022/05/21 07:32:18;;;;;;;;;;;21.50;99.90;;;;;;5072642;28;19915;-74
2022/05/21 07:34:44;;;;;;;;;;;21.60;99.90;;;;;;5074264;28;19999;-72
2022/05/21 07:37:09;;;;;;;;;;;21.60;99.90;;;;;;5074133;28;20019;-73
2022/05/21 07:39:35;;;;;;;;;;;21.90;99.90;;;;;;5072479;28;19971;-72
2022/05/21 07:42:01;;;;;;;;;;;22.00;99.90;;;;;;5072858;28;19909;-73
2022/05/21 07:44:27;;;;;;;;;;;22.00;99.90;;;;;;5074508;28;19916;-72
2022/05/21 07:46:53;;;;;;;;;;;22.00;99.90;;;;;;5074135;28;20403;-73
2022/05/21 07:49:18;;;;;;;;;;;22.00;99.90;;;;;;5072732;28;20060;-72
2022/05/21 07:51:44;;;;;;;;;;;21.80;99.90;;;;;;5072449;28;19908;-71
2022/05/21 07:54:09;;;;;;;;;;;21.80;99.90;;;;;;5074136;28;19974;-72
2022/05/21 07:56:35;;;;;;;;;;;21.70;99.90;;;;;;5073465;28;20013;-73
2022/05/21 07:59:00;;;;;;;;;;;21.80;99.90;;;;;;5072256;28;20285;-73
2022/05/21 08:01:25;;;;;;;;;;;22.00;99.90;;;;;;5072046;28;20248;-72
2022/05/21 08:03:51;;;;;;;;;;;22.30;99.90;;;;;;5072346;28;19916;-73
2022/05/21 08:06:17;;;;;;;;;;;22.40;99.90;;;;;;5073314;28;20417;-72
2022/05/21 08:08:43;;;;;;;;;;;22.80;99.90;;;;;;5072015;28;20312;-74
2022/05/21 08:11:09;;;;;;;;;;;23.00;99.90;;;;;;5072071;28;19916;-72
2022/05/21 08:13:37;;;;;;;;;;;23.10;99.90;;;;;;5073448;28;19967;-72
2022/05/21 08:16:03;;;;;;;;;;;22.90;99.90;;;;;;5071799;28;19994;-72
2022/05/21 08:18:29;;;;;;;;;;;22.80;99.90;;;;;;5073077;28;21989;-73
2022/05/21 08:20:55;;;;;;;;;;;22.70;99.90;;;;;;5071554;28;20322;-72
2022/05/21 08:28:49;;;;;;;;;;;22.30;99.90;;;;;;5073187;28;20011;-72
2022/05/21 08:31:15;;;;;;;;;;;22.20;99.90;;;;;;5072731;28;20091;-72
2022/05/21 08:33:40;;;;;;;;;;;22.20;99.90;;;;;;5072271;28;20328;-72
2022/05/21 08:36:06;;;;;;;;;;;22.40;99.90;;;;;;5072856;28;19930;-72
2022/05/21 08:38:32;;;;;;;;;;;22.60;99.90;;;;;;5072674;28;20012;-73
2022/05/21 08:41:03;;;;;;;;;;;22.80;99.90;;;;;;5072514;28;19913;-72
2022/05/21 08:43:40;;;;;;;;;;;23.10;99.90;;;;;;5072919;28;20331;-73
2022/05/21 08:46:18;;;;;;;;;;;23.40;99.90;;;;;;5071004;28;20020;-72
2022/05/21 08:48:52;;;;;;;;;;;23.40;99.90;;;;;;5071021;28;20015;-73
2022/05/21 08:51:19;;;;;;;;;;;23.30;99.90;;;;;;5072464;28;20352;-72
2022/05/21 08:53:49;;;;;;;;;;;23.30;99.90;;;;;;5072407;28;19917;-73
2022/05/21 08:56:15;;;;;;;;;;;23.20;99.90;;;;;;5072027;28;19924;-72
2022/05/21 08:58:46;;;;;;;;;;;23.40;99.90;;;;;;5072464;28;19912;-73
2022/05/21 09:01:14;;;;;;;;;;;23.50;99.90;;;;;;5072267;28;19929;-72
2022/05/21 09:03:40;;;;;;;;;;;23.70;99.90;;;;;;5071953;28;19960;-73
2022/05/21 09:06:05;;;;;;;;;;;23.90;99.90;;;;;;5071841;28;20037;-74
2022/05/21 09:08:37;;;;;;;;;;;24.30;99.90;;;;;;5070657;28;20373;-73
2022/05/21 09:11:24;;;;;;;;;;;24.50;99.90;;;;;;5070618;28;20328;-73
2022/05/21 09:13:50;;;;;;;;;;;24.40;99.90;;;;;;5072133;28;20396;-73
2022/05/21 09:19:03;;;;;;;;;;;24.00;99.90;;;;;;5072526;28;20027;-73
2022/05/21 09:21:31;;;;;;;;;;;23.90;99.90;;;;;;5070247;28;20478;-74
2022/05/21 09:23:58;;;;;;;;;;;23.80;99.90;;;;;;5071994;28;20292;-74
2022/05/21 09:26:28;;;;;;;;;;;23.60;99.90;;;;;;5071781;28;19908;-74
2022/05/21 09:29:13;;;;;;;;;;;23.50;99.90;;;;;;5070589;28;20112;-74
2022/05/21 09:31:38;;;;;;;;;;;23.30;99.90;;;;;;5070446;28;20003;-72
2022/05/21 09:34:24;;;;;;;;;;;23.10;99.90;;;;;;5072047;28;19964;-74
2022/05/21 09:36:50;;;;;;;;;;;22.90;99.90;;;;;;5071711;28;19917;-72
2022/05/21 09:39:30;;;;;;;;;;;22.80;99.90;;;;;;5070701;28;19916;-73
2022/05/21 09:45:22;;;;;;;;;;;22.60;99.90;;;;;;5071616;28;19930;-72
2022/05/21 09:45:23;;;;;;;;;;;22.40;99.90;;;;;;5071750;28;20267;-72
2022/05/21 09:47:53;;;;;;;;;;;21.90;99.90;;;;;;5071529;28;19948;-73
2022/05/21 09:50:23;;;;;;;;;;;21.30;99.90;;;;;;5070038;28;20372;-73
2022/05/21 09:52:49;;;;;;;;;;;20.80;99.90;;;;;;5071322;28;20314;-73
2022/05/21 09:55:26;;;;;;;;;;;20.40;99.90;;;;;;5070431;28;19940;-73
2022/05/21 09:57:52;;;;;;;;;;;20.10;99.90;;;;;;5071238;28;19912;-72
2022/05/21 10:00:27;;;;;;;;;;;19.80;99.90;;;;;;5071983;28;20285;-72
2022/05/21 10:02:54;;;;;;;;;;;19.40;99.90;;;;;;5071318;28;19909;-71
2022/05/21 10:05:38;;;;;;;;;;;19.20;99.90;;;;;;5071741;28;19942;-71
2022/05/21 10:10:59;;;;;;;;;;;18.80;99.90;;;;;;5071445;28;19969;-73
2022/05/21 10:13:44;;;;;;;;;;;18.60;99.90;;;;;;5071332;28;20046;-72
2022/05/21 10:16:28;;;;;;;;;;;18.50;99.90;;;;;;5071492;28;19924;-72
2022/05/21 10:19:02;;;;;;;;;;;18.40;99.90;;;;;;5071536;28;19970;-72
2022/05/21 10:21:46;;;;;;;;;;;18.30;99.90;;;;;;5069492;28;19915;-72
2022/05/21 10:24:20;;;;;;;;;;;18.30;99.90;;;;;;5069813;28;19917;-72
2022/05/21 10:26:46;;;;;;;;;;;18.20;99.90;;;;;;5070086;28;19913;-72
2022/05/21 10:29:22;;;;;;;;;;;18.20;99.90;;;;;;5069965;28;19912;-72
2022/05/21 10:31:55;;;;;;;;;;;18.30;99.90;;;;;;5071524;28;19952;-73
2022/05/21 10:34:23;;;;;;;;;;;18.30;99.90;;;;;;5071389;28;19918;-73
2022/05/21 10:36:49;;;;;;;;;;;18.30;99.90;;;;;;5069763;28;19916;-72
2022/05/21 10:39:46;;;;;;;;;;;18.30;99.90;;;;;;5071250;28;20419;-73
2022/05/21 10:42:18;;;;;;;;;;;18.30;99.90;;;;;;5058845;28;19912;-72
2022/05/21 10:44:51;;;;;;;;;;;18.30;99.90;;;;;;5071420;28;20124;-73
2022/05/21 10:47:25;;;;;;;;;;;18.20;99.90;;;;;;5069651;28;20287;-72
2022/05/21 10:50:08;;;;;;;;;;;18.20;99.90;;;;;;5069490;28;19956;-72
2022/05/21 10:52:42;;;;;;;;;;;18.10;99.90;;;;;;5070847;28;19958;-73
2022/05/21 10:55:08;;;;;;;;;;;18.10;99.90;;;;;;5071418;28;19912;-71
2022/05/21 10:57:39;;;;;;;;;;;18.10;99.90;;;;;;5073331;28;19970;-71
2022/05/21 11:00:27;;;;;;;;;;;18.10;99.90;;;;;;5075124;28;19962;-73
2022/05/21 11:03:07;;;;;;;;;;;18.10;99.90;;;;;;5074845;28;20322;-72
2022/05/21 11:05:49;;;;;;;;;;;18.00;99.90;;;;;;5074898;28;19920;-71
2022/05/21 11:08:17;;;;;;;;;;;18.00;99.90;;;;;;5074489;28;19916;-72
2022/05/21 11:10:43;;;;;;;;;;;18.00;99.90;;;;;;5074430;28;19912;-72
2022/05/21 11:13:12;;;;;;;;;;;18.10;99.90;;;;;;5073192;28;20280;-70
2022/05/21 11:15:46;;;;;;;;;;;18.20;99.90;;;;;;5074381;28;19944;-71
2022/05/21 11:18:15;;;;;;;;;;;18.30;99.90;;;;;;5072776;28;20007;-71
2022/05/21 11:20:47;;;;;;;;;;;18.50;99.90;;;;;;5073099;28;19916;-74
2022/05/21 11:23:26;;;;;;;;;;;18.60;99.90;;;;;;5073844;28;20380;-72
2022/05/21 11:25:55;;;;;;;;;;;18.90;99.90;;;;;;5074327;28;19916;-73
2022/05/21 11:28:26;;;;;;;;;;;19.20;99.90;;;;;;5074337;28;19939;-71
2022/05/21 11:31:12;;;;;;;;;;;19.50;99.90;;;;;;5074245;28;19928;-72
2022/05/21 11:39:10;;;;;;;;;;;19.40;99.90;;;;;;5074599;28;20038;-72
2022/05/21 11:41:54;;;;;;;;;;;19.40;99.90;;;;;;5074116;28;19988;-71
2022/05/21 11:47:13;;;;;;;;;;;19.40;99.90;;;;;;5073836;28;20023;-71
2022/05/21 11:49:43;;;;;;;;;;;19.40;99.90;;;;;;5072021;28;19913;-71
2022/05/21 11:52:27;;;;;;;;;;;19.30;99.90;;;;;;5074075;28;19935;-71
2022/05/21 11:54:53;;;;;;;;;;;19.20;99.90;;;;;;5072409;28;19920;-71
2022/05/21 11:57:33;;;;;;;;;;;19.10;99.90;;;;;;5073765;28;19921;-71
2022/05/21 12:00:00;;;;;;;;;;;18.90;99.90;;;;;;5073878;28;19939;-71
2022/05/21 12:02:26;;;;;;;;;;;18.80;99.90;;;;;;5073489;28;19917;-72
2022/05/21 12:05:02;;;;;;;;;;;18.80;99.90;;;;;;5073793;28;20400;-72
2022/05/21 12:07:43;;;;;;;;;;;18.70;99.90;;;;;;5073058;28;19912;-72
2022/05/21 12:10:13;;;;;;;;;;;18.70;99.90;;;;;;5071711;28;20268;-72
2022/05/21 12:13:00;;;;;;;;;;;18.70;99.90;;;;;;5072241;28;20280;-71
2022/05/21 12:15:34;;;;;;;;;;;18.70;99.90;;;;;;5072204;28;19913;-71
2022/05/21 12:18:04;;;;;;;;;;;18.80;99.90;;;;;;5073273;28;19924;-71
2022/05/21 12:20:49;;;;;;;;;;;19.10;99.90;;;;;;5072095;28;19923;-72
2022/05/21 12:23:35;;;;;;;;;;;19.40;99.90;;;;;;5073003;28;20368;-71
2022/05/21 12:26:02;;;;;;;;;;;19.90;99.90;;;;;;5071956;28;19912;-71
2022/05/21 12:28:31;;;;;;;;;;;20.00;99.90;;;;;;5073040;28;20398;-71
2022/05/21 12:31:07;;;;;;;;;;;20.20;99.90;;;;;;5072876;28;20284;-72
2022/05/21 12:33:38;;;;;;;;;;;20.20;99.90;;;;;;5071501;28;19999;-71
2022/05/21 12:36:12;;;;;;;;;;;20.20;99.90;;;;;;5071496;28;19938;-71
2022/05/21 12:38:39;;;;;;;;;;;20.30;99.90;;;;;;5071544;28;19916;-72
2022/05/21 12:41:10;;;;;;;;;;;20.40;99.90;;;;;;5072688;28;20414;-72
2022/05/21 12:43:49;;;;;;;;;;;20.70;99.90;;;;;;5072912;28;20375;-73
2022/05/21 12:46:24;;;;;;;;;;;20.90;99.90;;;;;;5072717;28;19913;-72
2022/05/21 12:48:50;;;;;;;;;;;21.10;99.90;;;;;;5072786;28;20361;-72
2022/05/21 12:51:34;;;;;;;;;;;21.20;99.90;;;;;;5072699;28;19917;-72
2022/05/21 12:54:02;;;;;;;;;;;21.40;99.90;;;;;;5071330;28;19916;-73
2022/05/21 12:56:35;;;;;;;;;;;21.50;99.90;;;;;;5070983;28;19973;-73
2022/05/21 12:59:01;;;;;;;;;;;21.60;99.90;;;;;;5071389;28;20280;-73
2022/05/21 13:01:30;;;;;;;;;;;21.70;99.90;;;;;;5072546;28;19917;-73
2022/05/21 13:03:56;;;;;;;;;;;21.70;99.90;;;;;;5072283;28;19917;-72
2022/05/21 13:06:23;;;;;;;;;;;21.80;99.90;;;;;;5072322;28;19939;-72
2022/05/21 13:08:50;;;;;;;;;;;22.20;99.90;;;;;;5071178;28;19913;-73
2022/05/21 13:11:21;;;;;;;;;;;21.90;99.90;;;;;;5070765;28;20285;-72
2022/05/21 13:13:56;;;;;;;;;;;22.00;99.90;;;;;;5072668;28;20364;-71
2022/05/21 13:16:23;;;;;;;;;;;22.00;99.90;;;;;;5072324;28;20384;-71
2022/05/21 13:18:58;;;;;;;;;;;21.90;99.90;;;;;;5072469;28;19913;-71
2022/05/21 13:21:29;;;;;;;;;;;21.90;99.90;;;;;;5070579;28;19947;-73
2022/05/21 13:24:04;;;;;;;;;;;21.90;99.90;;;;;;5070722;28;19924;-71
2022/05/21 13:26:31;;;;;;;;;;;21.80;99.90;;;;;;5070621;28;19927;-73
2022/05/21 13:29:14;;;;;;;;;;;21.80;99.90;;;;;;5072268;28;19920;-72
2022/05/21 13:31:39;;;;;;;;;;;21.70;99.90;;;;;;5071981;28;19916;-72
2022/05/21 13:34:05;;;;;;;;;;;21.80;99.90;;;;;;5070674;28;19966;-72
2022/05/21 13:36:31;;;;;;;;;;;21.80;99.90;;;;;;5071851;28;19912;-73
2022/05/21 13:38:57;;;;;;;;;;;21.80;99.90;;;;;;5071649;28;20336;-72
2022/05/21 13:41:33;;;;;;;;;;;21.90;99.90;;;;;;5070525;28;19958;-71
2022/05/21 13:44:01;;;;;;;;;;;22.00;99.90;;;;;;5071970;28;20344;-72
2022/05/21 13:46:28;;;;;;;;;;;22.00;99.90;;;;;;5070540;28;20023;-72
2022/05/21 13:48:55;;;;;;;;;;;22.20;99.90;;;;;;5070484;28;19912;-72
2022/05/21 13:51:22;;;;;;;;;;;22.40;99.90;;;;;;5070441;28;19929;-72
2022/05/21 13:53:50;;;;;;;;;;;22.40;99.90;;;;;;5071785;28;19912;-72
2022/05/21 13:56:35;;;;;;;;;;;22.30;99.90;;;;;;5071475;28;19912;-72
2022/05/21 13:59:19;;;;;;;;;;;22.30;99.90;;;;;;5071776;28;19973;-72
2022/05/21 14:01:48;;;;;;;;;;;22.30;99.90;;;;;;5070084;28;19912;-73
2022/05/21 14:04:28;;;;;;;;;;;22.40;99.90;;;;;;5071630;28;19966;-72
2022/05/21 14:06:54;;;;;;;;;;;22.40;99.90;;;;;;5070037;28;20425;-72
2022/05/21 14:09:24;;;;;;;;;;;22.50;99.90;;;;;;5070222;28;19919;-73
2022/05/21 14:11:51;;;;;;;;;;;22.40;99.90;;;;;;5070007;28;19995;-72
2022/05/21 14:14:17;;;;;;;;;;;22.30;99.90;;;;;;5071531;28;20304;-72
2022/05/21 14:16:43;;;;;;;;;;;22.20;99.90;;;;;;5069965;28;19999;-73
2022/05/21 14:19:24;;;;;;;;;;;22.10;99.90;;;;;;5071668;28;19913;-72
2022/05/21 14:22:03;;;;;;;;;;;22.00;99.90;;;;;;5070108;28;20006;-73
2022/05/21 14:24:34;;;;;;;;;;;21.80;99.90;;;;;;5070175;28;19924;-72
2022/05/21 14:26:59;;;;;;;;;;;21.80;99.90;;;;;;5069846;28;20364;-72
2022/05/21 14:29:38;;;;;;;;;;;21.70;99.90;;;;;;5071571;28;19916;-72
2022/05/21 14:32:33;;;;;;;;;;;21.70;99.90;;;;;;5072933;28;20325;-71
2022/05/21 14:35:10;;;;;;;;;;;21.70;99.90;;;;;;5070737;28;20249;-71
2022/05/21 14:37:36;;;;;;;;;;;21.70;99.90;;;;;;5074817;28;19924;-71
2022/05/21 14:40:03;;;;;;;;;;;21.70;99.90;;;;;;5075515;28;20307;-72
2022/05/21 14:42:29;;;;;;;;;;;21.80;99.90;;;;;;5075092;28;19932;-73
2022/05/21 14:44:55;;;;;;;;;;;22.00;99.90;;;;;;5075506;28;20045;-72
2022/05/21 14:52:52;;;;;;;;;;;22.10;99.90;;;;;;5075346;28;20399;-71
2022/05/21 14:55:19;;;;;;;;;;;22.10;99.90;;;;;;5075255;28;19917;-72
2022/05/21 14:57:44;;;;;;;;;;;22.20;99.90;;;;;;5074920;28;19920;-72
2022/05/21 15:00:11;;;;;;;;;;;22.10;99.90;;;;;;5075171;28;19954;-73
2022/05/21 15:02:37;;;;;;;;;;;22.10;99.90;;;;;;5073395;28;19977;-72
2022/05/21 15:05:03;;;;;;;;;;;22.00;99.90;;;;;;5074467;28;19917;-71
2022/05/21 15:07:29;;;;;;;;;;;22.00;99.90;;;;;;5073296;28;19909;-72